Time;durP1;ratioP1;P1;durP2;ratioP2;P2;SDS_P1;SDS_P2;PMS_P1;PMS_P2;Temp;Humidity;BMP_temperature;BMP_pressure;BME280_temperature;BME280_humidity;BME280_pressure;Samples;Min_cycle;Max_cycle;Signal;HPM_P1;HPM_P2
2022/01/18 00:01:35;;;;;;;2.88;1.08;;;-3.70;98.80;;;;;;5072358;28;20032;-63
2022/01/18 00:04:00;;;;;;;2.53;1.77;;;-3.70;98.80;;;;;;5071145;28;20031;-64
2022/01/18 00:06:27;;;;;;;1.77;1.35;;;-3.70;98.70;;;;;;5072333;28;20096;-63
2022/01/18 00:08:53;;;;;;;1.35;1.10;;;-3.80;98.80;;;;;;5072095;28;20025;-64
2022/01/18 00:11:22;;;;;;;3.20;1.30;;;-3.80;99.00;;;;;;5072013;28;20431;-64
2022/01/18 00:13:56;;;;;;;4.03;1.50;;;-3.80;99.20;;;;;;5072003;28;20042;-63
2022/01/18 00:16:28;;;;;;;1.17;1.08;;;-3.80;99.10;;;;;;5072021;28;20039;-63
2022/01/18 00:18:59;;;;;;;3.75;1.20;;;-3.80;99.30;;;;;;5071870;28;20035;-63
2022/01/18 00:24:08;;;;;;;2.78;1.25;;;-3.80;99.10;;;;;;5071728;28;20556;-63
2022/01/18 00:26:34;;;;;;;2.58;1.13;;;-3.90;99.30;;;;;;5071755;28;20025;-63
2022/01/18 00:29:08;;;;;;;5.10;1.42;;;-3.90;99.30;;;;;;5071962;28;20021;-63
2022/01/18 00:31:58;;;;;;;1.58;1.20;;;-3.90;99.40;;;;;;5071720;28;20566;-63
2022/01/18 00:34:29;;;;;;;;;;;-3.90;99.50;;;;;;5072363;28;20056;-63
2022/01/18 00:39:30;;;;;;;4.53;1.30;;;-3.90;99.30;;;;;;5071675;28;20025;-63
2022/01/18 00:41:56;;;;;;;3.60;1.65;;;-3.90;99.20;;;;;;5070373;28;20531;-63
2022/01/18 00:44:21;;;;;;;3.03;1.38;;;-4.00;99.40;;;;;;5071558;28;20032;-64
2022/01/18 00:46:47;;;;;;;3.92;1.40;;;-4.10;99.70;;;;;;5071803;28;20034;-63
2022/01/18 00:49:13;;;;;;;1.98;1.20;;;-4.10;99.90;;;;;;5071357;28;20029;-63
2022/01/18 00:51:41;;;;;;;1.20;1.10;;;-4.10;99.90;;;;;;5071539;28;20024;-63
2022/01/18 00:54:10;;;;;;;1.20;1.10;;;-4.10;99.90;;;;;;5071382;28;20025;-63
2022/01/18 00:56:41;;;;;;;2.15;1.20;;;-4.10;99.90;;;;;;5071698;28;20025;-63
2022/01/18 00:59:07;;;;;;;1.20;1.10;;;-4.10;99.90;;;;;;5071411;28;20514;-63
2022/01/18 01:01:34;;;;;;;2.63;1.20;;;-4.00;99.90;;;;;;5071583;28;20032;-63
2022/01/18 01:04:03;;;;;;;2.63;1.30;;;-4.10;99.90;;;;;;5071690;28;20434;-63
2022/01/18 01:06:31;;;;;;;2.90;1.20;;;-4.10;99.90;;;;;;5071308;28;20035;-63
2022/01/18 01:08:56;;;;;;;1.90;1.30;;;-4.10;99.90;;;;;;5071370;28;20047;-63
2022/01/18 01:11:23;;;;;;;3.80;1.10;;;-4.20;99.90;;;;;;5071380;28;20463;-63
2022/01/18 01:13:51;;;;;;;2.60;1.10;;;-4.20;99.90;;;;;;5071332;28;20083;-68
2022/01/18 01:19:20;;;;;;;4.35;1.20;;;-4.20;99.90;;;;;;5075063;28;20052;-66
2022/01/18 01:35:13;;;;;;;2.15;1.23;;;-4.40;99.90;;;;;;5075148;28;20020;-65
2022/01/18 01:43:27;;;;;;;1.65;1.00;;;-4.30;99.90;;;;;;5074760;28;20047;-65
2022/01/18 01:45:54;;;;;;;2.03;1.10;;;-4.40;99.90;;;;;;5073255;28;20028;-66
2022/01/18 01:48:23;;;;;;;3.58;1.30;;;-4.40;99.90;;;;;;5074583;28;20028;-65
2022/01/18 01:51:02;;;;;;;3.05;1.35;;;-4.50;99.90;;;;;;5073208;28;20131;-65
2022/01/18 01:53:29;;;;;;;3.08;1.48;;;-4.50;99.90;;;;;;5074554;28;20036;-65
2022/01/18 01:55:55;;;;;;;2.17;1.20;;;-4.50;99.90;;;;;;5074501;28;20494;-65
2022/01/18 01:58:23;;;;;;;3.72;1.52;;;-4.50;99.90;;;;;;5074135;28;20059;-65
2022/01/18 02:00:52;;;;;;;2.60;1.45;;;-4.50;99.90;;;;;;5074401;28;20028;-65
2022/01/18 02:03:18;;;;;;;2.15;1.45;;;-4.50;99.90;;;;;;5074101;28;20610;-65
2022/01/18 02:05:44;;;;;;;2.92;1.15;;;-4.50;99.90;;;;;;5074211;28;20051;-65
2022/01/18 02:08:12;;;;;;;2.63;1.35;;;-4.50;99.90;;;;;;5074300;28;20384;-65
2022/01/18 02:10:39;;;;;;;3.47;1.30;;;-4.50;99.90;;;;;;5074406;28;20044;-65
2022/01/18 02:13:07;;;;;;;3.03;1.17;;;-4.50;99.90;;;;;;5074350;28;20029;-65
2022/01/18 02:15:40;;;;;;;4.90;1.55;;;-4.50;99.90;;;;;;5074102;28;20364;-65
2022/01/18 02:23:36;;;;;;;2.70;1.33;;;-4.40;99.90;;;;;;5074134;28;20028;-65
2022/01/18 02:52:40;;;;;;;3.53;1.33;;;-4.60;99.90;;;;;;5056975;28;20416;-65
2022/01/18 02:55:06;;;;;;;4.82;1.60;;;-4.50;99.90;;;;;;5073196;28;20024;-65
2022/01/18 02:57:41;;;;;;;3.22;1.40;;;-4.50;99.90;;;;;;5072338;28;20031;-65
2022/01/18 03:00:20;;;;;;;2.33;1.50;;;-4.50;99.90;;;;;;5071792;28;20025;-66
2022/01/18 03:39:10;;;;;;;3.20;1.30;;;-4.70;99.90;;;;;;5180371;22;20065;-65
2022/01/18 03:41:35;;;;;;;4.30;1.58;;;-4.70;99.90;;;;;;5052427;28;20028;-65
2022/01/18 03:44:01;;;;;;;6.50;1.33;;;-4.70;99.90;;;;;;5052690;28;20058;-66
2022/01/18 03:46:27;;;;;;;3.80;1.40;;;-4.70;99.90;;;;;;5052459;28;20494;-65
2022/01/18 03:48:54;;;;;;;3.50;1.40;;;-4.70;99.90;;;;;;5057661;28;20494;-65
2022/01/18 03:51:19;;;;;;;5.50;1.63;;;-4.70;99.90;;;;;;5052608;28;20040;-65
2022/01/18 03:53:45;;;;;;;4.45;1.30;;;-4.70;99.90;;;;;;5052390;28;20029;-65
2022/01/18 03:56:11;;;;;;;4.53;1.20;;;-4.70;99.90;;;;;;5052204;28;20021;-65
2022/01/18 03:58:37;;;;;;;2.90;1.40;;;-4.70;99.90;;;;;;5052019;28;20152;-66
2022/01/18 04:01:03;;;;;;;3.97;1.20;;;-4.60;99.90;;;;;;5052186;28;20494;-66
2022/01/18 04:03:29;;;;;;;5.60;1.77;;;-4.50;99.90;;;;;;5051996;28;20037;-66
2022/01/18 04:05:56;;;;;;;3.22;1.33;;;-4.50;99.90;;;;;;5051896;28;20027;-66
2022/01/18 04:08:23;;;;;;;5.05;1.42;;;-4.50;99.90;;;;;;5051884;28;20025;-65
2022/01/18 04:10:49;;;;;;;4.38;1.40;;;-4.50;99.90;;;;;;5051697;28;20037;-66
2022/01/18 04:13:15;;;;;;;4.63;1.50;;;-4.50;99.90;;;;;;5052178;28;20021;-66
2022/01/18 04:15:41;;;;;;;2.08;1.75;;;-4.50;99.90;;;;;;5052009;28;20059;-65
2022/01/18 04:26:52;;;;;;;3.17;1.23;;;-4.40;99.90;;;;;;5052117;28;20228;-66
2022/01/18 04:28:48;;;;;;;1.90;1.05;;;-4.30;99.90;;;;;;5051565;28;20021;-66
2022/01/18 04:31:14;;;;;;;3.95;1.63;;;-4.30;99.90;;;;;;5052087;28;20108;-66
2022/01/18 04:33:39;;;;;;;3.33;1.50;;;-4.30;99.90;;;;;;5051773;28;20395;-65
2022/01/18 04:36:06;;;;;;;3.97;1.52;;;-4.30;99.90;;;;;;5051688;28;20021;-66
2022/01/18 04:38:33;;;;;;;3.97;1.30;;;-4.30;99.90;;;;;;5051281;28;20553;-66
2022/01/18 04:41:05;;;;;;;2.40;1.42;;;-4.20;99.90;;;;;;5051528;28;20028;-67
2022/01/18 04:48:58;;;;;;;3.70;2.60;;;-4.20;99.90;;;;;;5051705;28;20522;-66
2022/01/18 04:51:24;;;;;;;3.63;2.10;;;-4.20;99.90;;;;;;5055478;28;20033;-66
2022/01/18 04:53:55;;;;;;;4.13;1.70;;;-4.10;99.90;;;;;;5055599;28;20027;-66
2022/01/18 04:59:02;;;;;;;8.83;1.73;;;-4.10;99.90;;;;;;5055312;28;20426;-66
2022/01/18 05:01:27;;;;;;;2.85;1.40;;;-4.00;99.90;;;;;;5055696;28;20067;-66
2022/01/18 05:03:53;;;;;;;1.55;1.23;;;-4.00;99.90;;;;;;5055229;28;20420;-66
2022/01/18 05:06:20;;;;;;;3.25;1.38;;;-4.00;99.90;;;;;;5055400;28;20036;-66
2022/01/18 05:08:46;;;;;;;5.32;1.45;;;-4.00;99.90;;;;;;5055297;28;20104;-66
2022/01/18 05:11:19;;;;;;;2.38;1.38;;;-3.90;99.90;;;;;;5055217;28;20067;-66
2022/01/18 05:21:28;;;;;;;3.03;1.33;;;-3.80;99.90;;;;;;5055098;28;20036;-66
2022/01/18 05:23:55;;;;;;;4.45;1.33;;;-3.80;99.90;;;;;;5055009;28;20735;-66
2022/01/18 05:26:21;;;;;;;4.13;1.55;;;-3.80;99.90;;;;;;5054908;28;20368;-66
2022/01/18 05:28:47;;;;;;;1.63;1.30;;;-3.80;99.90;;;;;;5054613;28;20053;-66
2022/01/18 05:31:13;;;;;;;2.00;1.27;;;-3.70;99.90;;;;;;5054709;28;20033;-66
2022/01/18 05:33:41;;;;;;;2.65;1.40;;;-3.70;99.90;;;;;;5054601;28;20598;-66
2022/01/18 05:36:07;;;;;;;3.13;1.40;;;-3.70;99.90;;;;;;5053455;28;20040;-66
2022/01/18 05:38:33;;;;;;;3.03;1.50;;;-3.70;99.90;;;;;;5054328;28;20045;-69
2022/01/18 05:41:00;;;;;;;5.45;1.35;;;-3.70;99.90;;;;;;5054696;28;20043;-68
2022/01/18 05:43:25;;;;;;;2.85;1.55;;;-3.30;99.90;;;;;;5054490;28;20581;-67
2022/01/18 05:45:51;;;;;;;1.92;1.60;;;-2.90;99.90;;;;;;5054152;28;20025;-69
2022/01/18 05:48:17;;;;;;;4.28;1.35;;;-3.00;99.90;;;;;;5055779;28;20094;-68
2022/01/18 05:50:43;;;;;;;3.05;1.48;;;-3.10;99.90;;;;;;5068228;28;20122;-68
2022/01/18 05:53:08;;;;;;;5.28;1.75;;;-3.20;99.90;;;;;;5070642;28;20663;-68
2022/01/18 05:55:34;;;;;;;4.85;1.40;;;-3.20;99.90;;;;;;5073577;28;20471;-69
2022/01/18 05:58:00;;;;;;;4.55;1.50;;;-3.20;99.90;;;;;;5070794;28;20032;-67
2022/01/18 06:00:27;;;;;;;7.82;1.70;;;-3.30;99.90;;;;;;5073099;28;20031;-66
2022/01/18 06:08:07;;;;;;;5.35;2.05;;;-3.20;99.90;;;;;;5054043;28;20031;-66
2022/01/18 06:10:32;;;;;;;4.40;1.70;;;-3.10;99.90;;;;;;5070157;28;20060;-66
2022/01/18 06:13:03;;;;;;;1.90;1.50;;;-3.10;99.90;;;;;;5073123;28;20055;-67
2022/01/18 06:15:32;;;;;;;4.10;1.13;;;-3.10;99.90;;;;;;5073302;28;20066;-66
2022/01/18 06:17:58;;;;;;;3.17;1.40;;;-3.10;99.90;;;;;;5073630;28;20024;-67
2022/01/18 06:20:24;;;;;;;4.22;1.38;;;-3.00;99.90;;;;;;5073864;28;20050;-67
2022/01/18 06:22:51;;;;;;;3.70;1.50;;;-3.00;99.90;;;;;;5073790;28;20104;-66
2022/01/18 06:25:20;;;;;;;5.18;1.38;;;-3.00;99.90;;;;;;5072594;28;20029;-66
2022/01/18 06:27:47;;;;;;;6.55;2.00;;;-3.00;99.90;;;;;;5074014;28;20387;-69
2022/01/18 06:30:12;;;;;;;4.53;1.40;;;-2.90;99.90;;;;;;5073275;28;20032;-70
2022/01/18 06:32:40;;;;;;;6.05;1.25;;;-2.80;99.90;;;;;;5073891;28;20078;-71
2022/01/18 06:35:08;;;;;;;3.45;2.05;;;-1.90;99.90;;;;;;5073541;28;20021;-69
2022/01/18 06:37:34;;;;;;;3.22;1.40;;;-1.20;99.90;;;;;;5073379;28;20480;-67
2022/01/18 06:40:03;;;;;;;1.58;1.13;;;-1.20;99.90;;;;;;5073527;28;20056;-69
2022/01/18 06:42:28;;;;;;;6.18;1.63;;;-1.00;99.90;;;;;;5073477;28;20032;-69
2022/01/18 06:44:54;;;;;;;2.17;1.20;;;-1.00;99.90;;;;;;5073281;28;20017;-68
2022/01/18 06:47:20;;;;;;;4.70;1.92;;;-1.10;99.90;;;;;;5073390;28;20070;-69
2022/01/18 06:49:46;;;;;;;2.25;1.45;;;-1.10;99.90;;;;;;5072923;28;20036;-68
2022/01/18 06:52:11;;;;;;;4.22;1.60;;;-1.30;99.90;;;;;;5073444;28;20122;-68
2022/01/18 06:54:37;;;;;;;5.30;1.52;;;-1.30;99.90;;;;;;5071870;28;20121;-68
2022/01/18 06:57:04;;;;;;;6.90;1.50;;;-1.20;99.90;;;;;;5072971;28;20017;-68
2022/01/18 06:59:30;;;;;;;5.63;1.38;;;-1.10;99.90;;;;;;5072905;28;20025;-68
2022/01/18 07:01:55;;;;;;;5.25;1.40;;;-0.80;99.90;;;;;;5072950;28;20103;-68
2022/01/18 07:04:21;;;;;;;3.55;1.30;;;-0.80;99.90;;;;;;5072962;28;20028;-68
2022/01/18 07:06:47;;;;;;;1.90;1.35;;;-0.70;99.90;;;;;;5073088;28;20032;-68
2022/01/18 07:09:15;;;;;;;1.20;1.10;;;-0.60;99.90;;;;;;5072819;28;20028;-69
2022/01/18 07:11:41;;;;;;;4.00;1.38;;;-0.50;99.90;;;;;;5073090;28;20086;-69
2022/01/18 07:14:08;;;;;;;3.13;1.30;;;-0.50;99.90;;;;;;5072420;28;20446;-71
2022/01/18 07:16:33;;;;;;;3.88;1.10;;;-0.20;99.90;;;;;;5071337;28;20054;-68
2022/01/18 07:18:59;;;;;;;6.80;1.65;;;-0.40;99.90;;;;;;5072482;28;20024;-68
2022/01/18 07:21:25;;;;;;;2.50;1.40;;;-0.60;99.90;;;;;;5072630;28;20028;-68
2022/01/18 07:24:02;;;;;;;20.52;8.55;;;-0.90;99.90;;;;;;5072520;28;20021;-67
2022/01/18 07:26:27;;;;;;;280.92;123.20;;;-1.10;99.90;;;;;;5071338;28;20035;-68
2022/01/18 07:28:53;;;;;;;306.00;146.68;;;-1.10;99.90;;;;;;5072568;28;20111;-68
2022/01/18 07:31:19;;;;;;;83.38;40.28;;;-1.10;99.90;;;;;;5072777;28;20459;-68
2022/01/18 07:33:44;;;;;;;27.02;14.10;;;-1.10;99.90;;;;;;5072682;28;20024;-68
2022/01/18 07:36:10;;;;;;;15.68;9.77;;;-1.10;99.90;;;;;;5072391;28;20475;-68
2022/01/18 07:38:36;;;;;;;26.33;16.10;;;-1.10;99.90;;;;;;5072162;28;20048;-68
2022/01/18 07:41:02;;;;;;;11.57;6.60;;;-1.10;99.90;;;;;;5072078;28;20380;-68
2022/01/18 07:43:28;;;;;;;6.25;4.60;;;-1.10;99.90;;;;;;5069955;28;20024;-70
2022/01/18 07:45:54;;;;;;;4.95;3.25;;;-1.10;99.90;;;;;;5068179;28;20028;-68
2022/01/18 07:48:22;;;;;;;5.45;2.35;;;-1.10;99.90;;;;;;5071352;28;20032;-71
2022/01/18 07:50:51;;;;;;;2.72;1.77;;;-1.10;99.90;;;;;;5071970;28;20033;-69
2022/01/18 07:53:19;;;;;;;3.65;1.60;;;-1.10;99.90;;;;;;5072008;28;20050;-68
2022/01/18 07:55:46;;;;;;;3.95;1.70;;;-1.10;99.90;;;;;;5071991;28;20387;-70
2022/01/18 07:58:12;;;;;;;6.68;2.05;;;-1.10;99.90;;;;;;5071862;28;20039;-68
2022/01/18 08:00:38;;;;;;;4.88;1.42;;;-1.10;99.90;;;;;;5072005;28;20115;-68
2022/01/18 08:03:04;;;;;;;3.03;1.63;;;-1.10;99.90;;;;;;5071243;28;20107;-70
2022/01/18 08:05:29;;;;;;;4.82;1.52;;;-1.10;99.90;;;;;;5071843;28;20074;-69
2022/01/18 08:07:55;;;;;;;2.65;1.50;;;-0.90;99.90;;;;;;5071948;28;20025;-69
2022/01/18 08:10:21;;;;;;;4.55;1.50;;;-0.90;99.90;;;;;;5071733;28;20032;-68
2022/01/18 08:12:47;;;;;;;5.90;1.50;;;-1.00;99.90;;;;;;5071996;28;20060;-69
2022/01/18 08:15:17;;;;;;;5.75;1.90;;;-1.10;99.90;;;;;;5071781;28;20090;-69
2022/01/18 08:17:44;;;;;;;;;;;-1.10;99.90;;;;;;5071501;28;20041;-69
2022/01/18 08:20:13;;;;;;;4.47;1.40;;;-1.10;99.90;;;;;;5070651;28;19950;-69
2022/01/18 08:22:40;;;;;;;2.05;1.20;;;-1.20;99.90;;;;;;5071616;28;20025;-69
2022/01/18 08:25:07;;;;;;;8.27;1.30;;;-1.10;99.90;;;;;;5070949;28;20397;-70
2022/01/18 08:27:32;;;;;;;2.72;1.33;;;-1.10;99.90;;;;;;5071779;28;20032;-69
2022/01/18 08:29:58;;;;;;;4.75;1.10;;;-1.10;99.90;;;;;;5071306;28;20357;-68
2022/01/18 08:32:24;;;;;;;12.90;3.22;;;-0.90;99.90;;;;;;5070400;28;20031;-68
2022/01/18 08:34:50;;;;;;;53.63;25.33;;;-0.50;99.90;;;;;;5068410;28;20029;-68
2022/01/18 08:37:16;;;;;;;13.20;5.40;;;-0.60;99.90;;;;;;5070719;28;20021;-68
2022/01/18 08:39:42;;;;;;;4.18;2.70;;;-0.80;99.90;;;;;;5070141;28;20407;-68
2022/01/18 08:42:08;;;;;;;3.28;1.60;;;-0.90;99.90;;;;;;5070110;28;20597;-68
2022/01/18 08:44:35;;;;;;;15.40;3.03;;;-1.00;99.90;;;;;;5071288;28;20382;-70
2022/01/18 08:47:01;;;;;;;5.93;3.78;;;-1.00;99.90;;;;;;5070907;28;20029;-73
2022/01/18 08:49:26;;;;;;;4.47;2.03;;;-1.00;99.90;;;;;;5071283;28;20050;-72
2022/01/18 08:51:52;;;;;;;3.78;1.38;;;-0.60;99.90;;;;;;5070938;28;20028;-71
2022/01/18 08:54:18;;;;;;;4.65;2.22;;;0.10;99.90;;;;;;5071660;28;20470;-71
2022/01/18 08:56:44;;;;;;;3.75;3.05;;;0.00;99.90;;;;;;5071352;28;20020;-71
2022/01/18 08:59:09;;;;;;;6.95;2.30;;;-0.30;99.90;;;;;;5071106;28;20035;-72
2022/01/18 09:01:35;;;;;;;7.07;2.10;;;-0.50;99.90;;;;;;5071492;28;20037;-71
2022/01/18 09:04:02;;;;;;;2.22;1.73;;;-0.70;99.90;;;;;;5070020;28;20021;-71
2022/01/18 09:06:30;;;;;;;9.18;2.00;;;-0.80;99.90;;;;;;5071268;28;20484;-71
2022/01/18 09:08:57;;;;;;;5.65;1.90;;;-0.90;99.90;;;;;;5071298;28;20024;-71
2022/01/18 09:11:24;;;;;;;13.40;1.75;;;-0.90;99.90;;;;;;5071360;28;20476;-71
2022/01/18 09:13:53;;;;;;;4.18;1.63;;;-1.10;99.90;;;;;;5071213;28;20074;-71
2022/01/18 09:16:20;;;;;;;3.15;1.60;;;-1.10;99.90;;;;;;5070172;28;20024;-71
2022/01/18 09:18:47;;;;;;;5.45;1.42;;;-1.10;99.90;;;;;;5071296;28;20490;-71
2022/01/18 09:21:14;;;;;;;4.78;1.70;;;-1.10;99.90;;;;;;5071540;28;20028;-71
2022/01/18 09:23:40;;;;;;;3.70;1.50;;;-1.20;99.90;;;;;;5071397;28;20050;-71
2022/01/18 09:26:06;;;;;;;5.63;2.30;;;-1.20;99.90;;;;;;5071225;28;20021;-72
2022/01/18 09:28:32;;;;;;;6.00;1.40;;;-1.30;99.90;;;;;;5069669;28;20039;-71
2022/01/18 09:30:59;;;;;;;4.72;1.58;;;-0.50;99.90;;;;;;5071111;28;20390;-72
2022/01/18 09:33:26;;;;;;;4.85;1.10;;;0.00;99.90;;;;;;5069855;28;20067;-72
2022/01/18 09:35:52;;;;;;;94.07;47.53;;;0.20;99.90;;;;;;5071698;28;20089;-73
2022/01/18 09:38:17;;;;;;;14.30;7.38;;;0.00;99.90;;;;;;5074317;28;20048;-71
2022/01/18 09:40:45;;;;;;;8.23;2.78;;;0.70;99.90;;;;;;5074586;28;20028;-68
2022/01/18 09:43:14;;;;;;;6.18;1.42;;;0.90;99.90;;;;;;5074618;28;20406;-68
2022/01/18 09:45:42;;;;;;;2.83;1.60;;;0.50;99.90;;;;;;5074594;28;20020;-66
2022/01/18 09:48:09;;;;;;;5.72;1.90;;;0.30;99.90;;;;;;5074707;28;20028;-66
2022/01/18 09:50:37;;;;;;;6.65;1.60;;;0.00;99.90;;;;;;5074680;28;20044;-66
2022/01/18 09:53:06;;;;;;;3.42;1.50;;;-0.10;99.90;;;;;;5074384;28;20105;-66
2022/01/18 09:55:33;;;;;;;4.07;1.52;;;-0.10;99.90;;;;;;5074380;28;20032;-66
2022/01/18 09:58:01;;;;;;;4.57;1.50;;;-0.20;99.90;;;;;;5074443;28;20021;-68
2022/01/18 10:00:30;;;;;;;5.38;1.67;;;-0.30;99.90;;;;;;5073073;28;20035;-67
2022/01/18 10:02:57;;;;;;;2.95;1.23;;;-0.30;99.90;;;;;;5072707;28;20020;-68
2022/01/18 10:05:25;;;;;;;4.05;1.48;;;-0.30;99.90;;;;;;5074485;28;20058;-68
2022/01/18 10:08:01;;;;;;;4.13;1.27;;;-0.40;99.90;;;;;;5074134;28;20059;-68
2022/01/18 10:10:41;;;;;;;7.10;1.80;;;-0.40;99.90;;;;;;5073494;28;20048;-68
2022/01/18 10:13:08;;;;;;;5.80;1.38;;;-0.40;99.90;;;;;;5074027;28;20357;-68
2022/01/18 10:15:34;;;;;;;3.22;1.27;;;-0.40;99.90;;;;;;5074258;28;20096;-68
2022/01/18 10:18:08;;;;;;;8.45;1.70;;;-0.50;99.90;;;;;;5073754;28;20107;-68
2022/01/18 10:20:49;;;;;;;1.80;1.20;;;-0.50;99.90;;;;;;5077724;28;20017;-69
2022/01/18 10:23:24;;;;;;;3.22;1.75;;;-0.50;99.90;;;;;;5073824;28;20021;-69
2022/01/18 10:25:52;;;;;;;5.90;1.65;;;-0.50;99.90;;;;;;5073678;28;20021;-69
2022/01/18 10:28:34;;;;;;;4.03;1.35;;;-0.50;99.90;;;;;;5073600;28;20025;-69
2022/01/18 10:31:06;;;;;;;4.50;1.60;;;-0.50;99.90;;;;;;5073342;28;20033;-69
2022/01/18 10:33:46;;;;;;;2.53;1.48;;;-0.50;99.90;;;;;;5073624;28;20500;-69
2022/01/18 10:36:14;;;;;;;2.33;1.20;;;-0.50;99.90;;;;;;5073296;28;20072;-69
2022/01/18 10:38:45;;;;;;;1.27;1.02;;;-0.40;99.90;;;;;;5073296;28;20093;-69
2022/01/18 10:41:28;;;;;;;4.55;1.05;;;-0.40;99.90;;;;;;5072843;28;20029;-69
2022/01/18 10:44:06;;;;;;;1.50;1.38;;;-0.40;99.90;;;;;;5073409;28;20028;-69
2022/01/18 10:46:40;;;;;;;5.95;1.40;;;-0.40;99.90;;;;;;5073510;28;20039;-69
2022/01/18 10:49:07;;;;;;;4.97;1.38;;;-0.40;99.90;;;;;;5072816;28;20035;-69
2022/01/18 10:51:36;;;;;;;2.30;1.08;;;-0.40;99.90;;;;;;5073275;28;20127;-70
2022/01/18 10:54:05;;;;;;;4.78;1.40;;;-0.30;99.90;;;;;;5073314;28;20020;-72
2022/01/18 10:56:45;;;;;;;14.43;7.60;;;-0.30;99.90;;;;;;5073229;28;20147;-73
2022/01/18 10:59:25;;;;;;;8.52;3.40;;;-0.20;99.90;;;;;;5073381;28;20029;-73
2022/01/18 11:02:12;;;;;;;2.28;1.63;;;-0.20;99.90;;;;;;5073324;28;20032;-73
2022/01/18 11:04:40;;;;;;;2.38;1.30;;;-0.10;99.90;;;;;;5073225;28;20392;-72
2022/01/18 11:07:06;;;;;;;4.13;1.50;;;0.50;99.90;;;;;;5072954;28;20031;-68
2022/01/18 11:09:33;;;;;;;3.22;1.27;;;1.00;99.90;;;;;;5072855;28;20028;-67
2022/01/18 11:12:00;;;;;;;4.72;1.45;;;0.90;99.90;;;;;;5071283;28;20062;-66
2022/01/18 11:14:26;;;;;;;4.88;1.52;;;0.70;99.90;;;;;;5072329;28;20012;-67
2022/01/18 11:16:56;;;;;;;3.88;1.27;;;0.60;99.90;;;;;;5072063;28;20095;-66
2022/01/18 11:21:53;;;;;;;4.43;1.35;;;0.40;99.90;;;;;;5072342;28;20024;-67
2022/01/18 11:24:20;;;;;;;3.40;1.15;;;0.40;99.90;;;;;;5072560;28;20383;-68
2022/01/18 11:26:47;;;;;;;2.75;1.40;;;0.40;99.90;;;;;;5072685;28;20390;-67
2022/01/18 11:29:16;;;;;;;2.75;1.20;;;0.30;99.90;;;;;;5072394;28;20021;-67
2022/01/18 11:31:48;;;;;;;2.35;1.30;;;0.30;99.90;;;;;;5071310;28;20477;-67
2022/01/18 11:34:29;;;;;;;1.60;0.95;;;0.20;99.90;;;;;;5072407;28;20024;-67
2022/01/18 11:37:07;;;;;;;2.25;1.02;;;0.20;99.90;;;;;;5072695;28;20024;-67
2022/01/18 11:39:33;;;;;;;0.98;0.80;;;0.20;99.90;;;;;;5072437;28;20526;-67
2022/01/18 11:42:13;;;;;;;2.60;1.15;;;0.20;99.90;;;;;;5072022;28;20024;-67
2022/01/18 11:44:40;;;;;;;1.85;0.80;;;0.20;99.90;;;;;;5071942;28;20365;-67
2022/01/18 11:47:06;;;;;;;1.95;0.90;;;0.20;99.90;;;;;;5072309;28;20439;-67
2022/01/18 11:49:34;;;;;;;1.25;0.93;;;0.30;99.90;;;;;;5072109;28;20051;-67
2022/01/18 11:52:04;;;;;;;4.03;1.00;;;0.30;99.90;;;;;;5072087;28;20039;-67
2022/01/18 11:54:57;;;;;;;3.08;1.30;;;0.30;99.90;;;;;;5071754;28;20016;-67
2022/01/18 11:57:23;;;;;;;1.98;0.85;;;0.40;99.90;;;;;;5071975;28;20033;-67
2022/01/18 12:00:00;;;;;;;2.00;1.05;;;0.40;99.90;;;;;;5071304;28;20016;-72
2022/01/18 12:02:38;;;;;;;4.13;1.10;;;0.40;99.90;;;;;;5071870;28;20029;-71
2022/01/18 12:05:14;;;;;;;1.65;0.90;;;0.40;99.90;;;;;;5071357;28;20484;-71
2022/01/18 12:07:41;;;;;;;3.30;0.95;;;0.50;99.90;;;;;;5071658;28;20101;-72
2022/01/18 12:10:27;;;;;;;1.95;1.10;;;0.50;99.90;;;;;;5071171;28;20038;-72
2022/01/18 12:12:54;;;;;;;2.05;0.90;;;0.50;99.90;;;;;;5072237;28;20039;-73
2022/01/18 12:15:23;;;;;;;3.80;0.93;;;0.60;99.90;;;;;;5071701;28;20056;-73
2022/01/18 12:17:57;;;;;;;2.67;1.02;;;0.60;99.90;;;;;;5072160;28;20086;-73
2022/01/18 12:20:44;;;;;;;2.20;1.10;;;0.60;99.90;;;;;;5055572;28;20531;-73
2022/01/18 12:23:18;;;;;;;0.90;0.80;;;0.60;99.90;;;;;;5064617;28;20613;-73
2022/01/18 12:26:04;;;;;;;1.77;0.73;;;0.70;99.90;;;;;;5071209;28;20430;-73
2022/01/18 12:36:57;;;;;;;2.22;1.02;;;0.80;99.90;;;;;;5071696;28;20475;-72
2022/01/18 12:39:24;;;;;;;2.15;0.80;;;0.80;99.90;;;;;;5068635;28;20048;-73
2022/01/18 12:41:56;;;;;;;2.47;1.20;;;0.90;99.90;;;;;;5064085;28;20040;-73
2022/01/18 12:44:22;;;;;;;1.52;0.90;;;0.90;99.90;;;;;;5070607;28;20029;-73
2022/01/18 12:46:57;;;;;;;1.13;1.00;;;0.90;99.90;;;;;;5070452;28;20043;-72
2022/01/18 12:49:23;;;;;;;0.85;0.80;;;1.00;99.90;;;;;;5065558;28;20379;-75
2022/01/18 12:51:57;;;;;;;1.77;0.80;;;1.00;99.90;;;;;;5064768;28;20111;-72
2022/01/18 12:54:39;;;;;;;1.02;0.80;;;1.00;99.90;;;;;;5069045;28;20032;-72
2022/01/18 12:57:20;;;;;;;0.85;0.70;;;1.00;99.90;;;;;;5066761;28;20111;-72
2022/01/18 13:00:07;;;;;;;1.35;1.13;;;1.10;99.90;;;;;;5065872;28;20032;-70
2022/01/18 13:02:33;;;;;;;0.90;0.90;;;1.10;99.90;;;;;;5070609;28;20090;-70
2022/01/18 13:05:01;;;;;;;1.05;0.95;;;1.20;99.90;;;;;;5071255;28;20021;-71
2022/01/18 13:07:27;;;;;;;1.63;0.88;;;1.20;99.90;;;;;;5070703;28;20079;-71
2022/01/18 13:09:58;;;;;;;1.23;0.90;;;1.20;99.90;;;;;;5070515;28;20044;-70
2022/01/18 13:12:29;;;;;;;2.35;0.90;;;1.20;99.90;;;;;;5074374;28;20070;-69
2022/01/18 13:14:55;;;;;;;0.88;0.82;;;1.30;99.90;;;;;;5075051;28;20074;-71
2022/01/18 13:23:21;;;;;;;0.93;0.85;;;2.10;99.90;;;;;;5075160;28;20031;-73
2022/01/18 13:25:51;;;;;;;2.83;0.88;;;2.00;99.90;;;;;;5074906;28;20102;-72
2022/01/18 13:28:16;;;;;;;1.40;0.77;;;1.80;99.90;;;;;;5074758;28;20016;-72
2022/01/18 13:30:42;;;;;;;2.60;0.95;;;1.80;99.90;;;;;;5074828;28;20032;-68
2022/01/18 13:33:11;;;;;;;1.02;0.93;;;1.80;99.90;;;;;;5075014;28;20029;-68
2022/01/18 13:35:37;;;;;;;4.30;0.85;;;1.70;99.90;;;;;;5074936;28;20028;-68
2022/01/18 13:38:03;;;;;;;1.10;0.80;;;1.70;99.90;;;;;;5065258;28;20118;-68
2022/01/18 13:40:31;;;;;;;1.15;0.88;;;1.70;99.90;;;;;;5074045;28;20035;-68
2022/01/18 13:43:08;;;;;;;2.03;0.82;;;1.70;99.90;;;;;;5074286;28;20071;-69
2022/01/18 13:45:36;;;;;;;0.70;0.70;;;1.80;99.90;;;;;;5074778;28;20025;-71
2022/01/18 13:48:06;;;;;;;2.55;0.90;;;1.80;99.90;;;;;;5074882;28;20048;-73
2022/01/18 13:50:37;;;;;;;1.08;1.02;;;2.60;99.90;;;;;;5076132;28;20041;-70
2022/01/18 13:53:22;;;;;;;0.80;0.70;;;2.40;99.90;;;;;;5074468;28;20444;-70
2022/01/18 13:56:01;;;;;;;2.38;0.80;;;2.20;99.90;;;;;;5074423;28;20031;-73
2022/01/18 13:58:28;;;;;;;2.90;0.90;;;2.10;99.90;;;;;;5073531;28;20760;-72
2022/01/18 14:01:09;;;;;;;0.60;0.60;;;2.10;99.90;;;;;;5074303;28;20407;-72
2022/01/18 14:03:39;;;;;;;;;;;2.00;99.90;;;;;;5067410;28;20032;-72
2022/01/18 14:06:06;;;;;;;1.13;0.98;;;2.00;99.90;;;;;;5074276;28;19912;-72
2022/01/18 14:08:41;;;;;;;0.60;0.60;;;2.00;99.90;;;;;;5074201;28;20020;-72
2022/01/18 14:11:10;;;;;;;1.70;0.70;;;2.00;99.90;;;;;;5073819;28;20040;-72
2022/01/18 14:13:39;;;;;;;1.02;0.88;;;2.00;99.90;;;;;;5074324;28;20025;-71
2022/01/18 14:16:24;;;;;;;1.05;0.80;;;2.00;99.90;;;;;;5073831;28;20027;-72
2022/01/18 14:18:55;;;;;;;0.68;0.68;;;2.00;99.90;;;;;;5074077;28;20074;-72
2022/01/18 14:21:25;;;;;;;1.33;0.80;;;2.00;99.90;;;;;;5073798;28;20108;-72
2022/01/18 14:24:24;;;;;;;2.33;0.75;;;2.10;99.90;;;;;;5072883;28;20035;-72
2022/01/18 14:26:53;;;;;;;0.60;0.60;;;2.10;99.90;;;;;;5073729;28;20024;-72
2022/01/18 14:29:38;;;;;;;1.85;0.80;;;2.10;99.90;;;;;;5074001;28;20074;-72
2022/01/18 14:32:15;;;;;;;0.93;0.70;;;2.10;99.90;;;;;;5073573;28;20040;-72
2022/01/18 14:34:41;;;;;;;2.08;0.80;;;2.20;99.90;;;;;;5073755;28;20021;-71
2022/01/18 14:37:09;;;;;;;1.13;0.98;;;2.20;99.90;;;;;;5073181;28;20124;-72
2022/01/18 14:40:27;;;;;;;1.02;0.90;;;2.20;99.90;;;;;;5073638;28;20051;-73
2022/01/18 14:42:59;;;;;;;1.75;1.15;;;2.20;99.90;;;;;;5034771;28;20029;-71
2022/01/18 14:45:36;;;;;;;1.95;0.88;;;2.20;99.90;;;;;;5073304;28;20024;-72
2022/01/18 14:48:05;;;;;;;1.30;0.80;;;2.30;99.90;;;;;;5073807;28;20025;-73
2022/01/18 14:50:30;;;;;;;0.70;0.70;;;2.30;99.90;;;;;;5073185;28;20036;-73
2022/01/18 14:52:56;;;;;;;1.08;0.68;;;2.30;99.90;;;;;;5073341;28;20029;-72
2022/01/18 14:55:25;;;;;;;1.48;0.70;;;2.40;99.90;;;;;;5073175;28;20056;-72
2022/01/18 14:57:52;;;;;;;0.80;0.77;;;2.40;99.90;;;;;;5073161;28;20020;-72
2022/01/18 15:00:19;;;;;;;0.50;0.50;;;2.40;99.90;;;;;;5071719;28;20394;-72
2022/01/18 15:02:46;;;;;;;0.60;0.60;;;2.50;99.90;;;;;;5073235;28;20100;-72
2022/01/18 15:05:11;;;;;;;0.95;0.65;;;2.50;99.90;;;;;;5072285;28;20071;-72
2022/01/18 15:07:39;;;;;;;0.57;0.57;;;2.60;99.90;;;;;;5073132;28;20029;-72
2022/01/18 15:10:06;;;;;;;0.70;0.70;;;2.60;99.90;;;;;;5070828;28;20147;-69
2022/01/18 15:12:33;;;;;;;1.15;0.90;;;2.70;99.90;;;;;;5070591;28;20036;-69
2022/01/18 15:14:59;;;;;;;1.08;0.70;;;2.70;99.90;;;;;;5069824;28;20048;-68
2022/01/18 15:17:25;;;;;;;1.33;0.73;;;2.70;99.90;;;;;;5068363;28;20494;-71
2022/01/18 15:19:50;;;;;;;1.13;0.90;;;2.80;99.90;;;;;;5072181;28;20016;-71
2022/01/18 15:22:16;;;;;;;0.70;0.70;;;2.80;99.90;;;;;;5071757;28;20023;-71